createdAt,value
2022-07-29T00:04:22.431Z,15.68
2022-07-29T00:09:25.973Z,15.67
2022-07-29T00:14:30.234Z,15.63
2022-07-29T00:19:33.616Z,15.64
2022-07-29T00:24:37.062Z,15.63
2022-07-29T00:29:40.438Z,15.54
2022-07-29T00:35:02.802Z,15.38
2022-07-29T00:40:07.431Z,15.27
2022-07-29T00:45:12.162Z,15.12
2022-07-29T00:50:16.012Z,15.15
2022-07-29T00:55:20.255Z,15.26
2022-07-29T01:00:28.371Z,15.25
2022-07-29T01:05:48.226Z,15.17
2022-07-29T01:10:56.313Z,15.07
2022-07-29T01:16:11.006Z,14.97
2022-07-29T01:21:54.549Z,14.91
2022-07-29T01:27:31.833Z,14.78
2022-07-29T01:32:39.241Z,14.64
2022-07-29T01:38:12.200Z,14.64
2022-07-29T01:43:24.265Z,14.69
2022-07-29T01:48:58.441Z,14.75
2022-07-29T01:54:29.232Z,14.60
2022-07-29T01:59:36.750Z,14.51
2022-07-29T02:04:42.365Z,14.32
2022-07-29T02:09:49.268Z,14.16
2022-07-29T02:14:56.225Z,14.11
2022-07-29T02:20:04.350Z,13.96
2022-07-29T02:25:13.744Z,13.94
2022-07-29T02:30:19.673Z,13.94
2022-07-29T02:35:24.329Z,13.96
2022-07-29T02:40:28.000Z,14.00
2022-07-29T02:45:31.791Z,13.98
2022-07-29T02:50:41.724Z,13.93
2022-07-29T02:55:54.160Z,13.75
2022-07-29T03:01:02.654Z,13.63
2022-07-29T03:06:08.654Z,13.55
2022-07-29T03:11:40.135Z,13.46
2022-07-29T03:16:52.453Z,13.40
2022-07-29T03:22:00.057Z,13.41
2022-07-29T03:27:06.653Z,13.45
2022-07-29T03:32:10.063Z,13.48
2022-07-29T03:37:13.895Z,13.45
2022-07-29T03:42:22.423Z,13.49
2022-07-29T03:47:39.296Z,13.58
2022-07-29T03:52:53.622Z,13.56
2022-07-29T03:57:59.824Z,13.46
2022-07-29T04:03:05.895Z,13.40
2022-07-29T04:08:14.124Z,13.45
2022-07-29T04:13:17.725Z,13.59
2022-07-29T04:18:21.117Z,13.83
2022-07-29T04:23:24.432Z,14.00
2022-07-29T04:28:27.912Z,14.03
2022-07-29T04:33:31.230Z,14.05
2022-07-29T04:38:34.590Z,14.14
2022-07-29T04:43:38.160Z,14.29
2022-07-29T04:48:42.237Z,14.46
2022-07-29T04:53:45.734Z,14.66
2022-07-29T04:58:49.164Z,14.81
2022-07-29T05:03:55.873Z,14.88
2022-07-29T05:09:01.828Z,15.05
2022-07-29T05:14:05.241Z,15.26
2022-07-29T05:19:13.970Z,15.42
2022-07-29T05:24:18.080Z,15.45
2022-07-29T05:29:42.726Z,15.48
2022-07-29T05:34:50.460Z,15.63
2022-07-29T05:39:56.595Z,15.87
2022-07-29T05:45:01.417Z,16.15
2022-07-29T05:50:05.981Z,16.38
2022-07-29T05:55:10.536Z,16.55
2022-07-29T06:00:14.733Z,16.69
2022-07-29T06:05:18.569Z,16.88
2022-07-29T06:10:23.973Z,17.19
2022-07-29T06:15:30.655Z,17.56
2022-07-29T06:20:34.374Z,17.86
2022-07-29T06:25:37.992Z,17.97
2022-07-29T06:30:41.627Z,18.11
2022-07-29T06:35:53.142Z,18.22
2022-07-29T06:41:03.912Z,18.51
2022-07-29T06:46:11.737Z,18.79
2022-07-29T06:51:15.441Z,18.91
2022-07-29T06:56:19.779Z,19.01
2022-07-29T07:01:23.281Z,19.07
2022-07-29T07:06:26.701Z,19.20
2022-07-29T07:11:30.435Z,19.40
2022-07-29T07:16:34.154Z,19.75
2022-07-29T07:21:37.662Z,19.90
2022-07-29T07:26:41.310Z,19.94
2022-07-29T07:31:45.154Z,20.02
2022-07-29T07:36:48.605Z,20.06
2022-07-29T07:41:52.030Z,20.18
2022-07-29T07:46:55.511Z,20.51
2022-07-29T07:51:58.872Z,20.62
2022-07-29T07:57:02.500Z,20.59
2022-07-29T08:02:07.103Z,20.72
2022-07-29T08:07:10.797Z,20.96
2022-07-29T08:12:14.468Z,21.01
2022-07-29T08:17:17.918Z,21.26
2022-07-29T08:22:21.338Z,21.42
2022-07-29T08:27:43.011Z,21.43
2022-07-29T08:32:54.250Z,21.40
2022-07-29T08:37:58.177Z,21.51
2022-07-29T08:43:10.884Z,21.70
2022-07-29T08:48:16.602Z,21.96
2022-07-29T08:53:20.579Z,22.18
2022-07-29T08:58:25.938Z,22.29
2022-07-29T09:03:34.170Z,22.56
2022-07-29T09:08:37.692Z,22.70
2022-07-29T09:13:41.507Z,22.70
2022-07-29T09:18:47.976Z,22.99
2022-07-29T09:24:20.695Z,23.18
2022-07-29T09:29:26.036Z,23.08
2022-07-29T09:34:32.849Z,23.06
2022-07-29T09:39:50.474Z,22.55
2022-07-29T09:44:53.915Z,22.53
2022-07-29T09:50:00.854Z,22.24
2022-07-29T09:55:10.372Z,22.14
2022-07-29T10:00:24.321Z,22.18
2022-07-29T10:05:36.478Z,22.34
2022-07-29T10:10:44.035Z,22.65
2022-07-29T10:15:47.673Z,22.98
2022-07-29T10:20:52.172Z,23.09
2022-07-29T10:25:57.654Z,23.15
2022-07-29T10:31:13.810Z,23.30
2022-07-29T10:36:35.017Z,23.53
2022-07-29T10:42:33.468Z,23.18
2022-07-29T10:47:38.540Z,23.39
2022-07-29T10:52:51.105Z,23.16
2022-07-29T10:58:31.490Z,23.12
2022-07-29T11:09:35.102Z,24.08
2022-07-29T11:14:57.997Z,24.23
2022-07-29T11:20:32.771Z,24.08
2022-07-29T11:25:42.770Z,23.87
2022-07-29T11:30:56.625Z,23.96
2022-07-29T11:36:28.567Z,24.35
2022-07-29T11:41:37.214Z,24.59
2022-07-29T11:46:53.872Z,24.41
2022-07-29T11:57:36.329Z,24.44
2022-07-29T12:07:03.404Z,24.40
2022-07-29T12:08:15.062Z,24.42
2022-07-29T12:13:22.090Z,24.45
2022-07-29T12:18:26.298Z,24.54
2022-07-29T12:23:35.108Z,24.63
2022-07-29T12:28:40.183Z,24.62
2022-07-29T12:33:54.884Z,24.84
2022-07-29T12:39:00.420Z,25.04
2022-07-29T12:44:04.458Z,25.19
2022-07-29T12:49:08.159Z,25.54
2022-07-29T12:54:15.288Z,25.66
2022-07-29T12:59:23.344Z,25.74
2022-07-29T13:04:31.965Z,25.65
2022-07-29T13:09:49.742Z,25.40
2022-07-29T13:14:53.212Z,25.05
2022-07-29T13:20:13.829Z,25.00
2022-07-29T13:25:33.238Z,25.00
2022-07-29T13:30:36.792Z,25.02
2022-07-29T13:35:49.058Z,24.98
2022-07-29T13:40:52.578Z,25.05
2022-07-29T13:45:56.235Z,25.15
2022-07-29T13:50:59.807Z,25.34
2022-07-29T13:56:03.855Z,25.48
2022-07-29T14:01:07.379Z,25.47
2022-07-29T14:06:10.783Z,25.28
2022-07-29T14:11:14.225Z,25.12
2022-07-29T14:16:17.871Z,25.00
2022-07-29T14:21:21.519Z,25.00
2022-07-29T14:26:25.209Z,25.03
2022-07-29T14:31:28.686Z,25.16
2022-07-29T14:36:32.120Z,25.42
2022-07-29T14:41:35.908Z,25.50
2022-07-29T14:46:40.526Z,25.63
2022-07-29T14:51:44.155Z,25.83
2022-07-29T14:56:48.081Z,25.91
2022-07-29T15:01:51.521Z,25.66
2022-07-29T15:06:54.951Z,25.50
2022-07-29T15:11:59.832Z,25.54
2022-07-29T15:17:04.653Z,25.47
2022-07-29T15:22:09.139Z,25.15
2022-07-29T15:27:15.426Z,24.86
2022-07-29T15:32:18.877Z,24.68
2022-07-29T15:37:22.462Z,24.57
2022-07-29T15:42:25.866Z,24.59
2022-07-29T15:47:29.383Z,25.00
2022-07-29T15:52:32.820Z,25.97
2022-07-29T15:57:36.311Z,26.73
2022-07-29T16:02:39.933Z,27.41
2022-07-29T16:07:43.449Z,27.76
2022-07-29T16:12:46.862Z,27.89
2022-07-29T16:17:50.728Z,28.29
2022-07-29T16:22:54.103Z,28.84
2022-07-29T16:27:59.911Z,29.21
2022-07-29T16:33:08.043Z,29.32
2022-07-29T16:38:12.292Z,28.42
2022-07-29T16:43:15.814Z,27.60
2022-07-29T16:48:19.258Z,26.91
2022-07-29T16:53:25.218Z,26.44
2022-07-29T16:58:30.773Z,25.86
2022-07-29T17:03:34.110Z,25.42
2022-07-29T17:08:37.479Z,25.60
2022-07-29T17:13:40.936Z,27.06
2022-07-29T17:18:44.260Z,27.49
2022-07-29T17:23:48.587Z,27.12
2022-07-29T17:28:52.226Z,27.89
2022-07-29T17:33:59.828Z,28.43
2022-07-29T17:39:08.789Z,28.51
2022-07-29T17:44:12.173Z,29.14
2022-07-29T17:49:15.652Z,28.78
2022-07-29T17:54:19.676Z,28.65
2022-07-29T17:59:23.129Z,27.09
2022-07-29T18:04:26.512Z,25.69
2022-07-29T18:09:30.369Z,24.76
2022-07-29T18:14:34.303Z,24.08
2022-07-29T18:19:37.934Z,23.57
2022-07-29T18:24:42.657Z,23.13
2022-07-29T18:29:46.072Z,22.74
2022-07-29T18:34:54.614Z,22.38
2022-07-29T18:39:59.603Z,22.09
2022-07-29T18:45:03.080Z,21.83
2022-07-29T18:50:08.571Z,21.57
2022-07-29T18:55:12.222Z,21.33
2022-07-29T19:00:16.567Z,21.08
2022-07-29T19:05:20.997Z,20.85
2022-07-29T19:10:24.367Z,20.66
2022-07-29T19:15:29.595Z,20.49
2022-07-29T19:20:33.389Z,20.32
2022-07-29T19:25:53.678Z,20.18
2022-07-29T19:30:57.706Z,20.01
2022-07-29T19:36:03.306Z,19.86
2022-07-29T19:41:07.326Z,19.71
2022-07-29T19:46:10.811Z,19.56
2022-07-29T19:51:14.363Z,19.38
2022-07-29T19:56:17.894Z,19.28
2022-07-29T20:01:21.482Z,19.18
2022-07-29T20:06:25.054Z,19.08
2022-07-29T20:11:29.991Z,18.98
2022-07-29T20:16:33.505Z,18.88
2022-07-29T20:21:37.222Z,18.75
2022-07-29T20:26:40.707Z,18.61
2022-07-29T20:31:44.265Z,18.51
2022-07-29T20:36:49.207Z,18.37
2022-07-29T20:41:53.025Z,18.26
2022-07-29T20:46:57.582Z,18.18
2022-07-29T20:52:01.227Z,18.08
2022-07-29T20:57:05.107Z,17.99
2022-07-29T21:02:08.831Z,17.93
2022-07-29T21:07:12.959Z,17.85
2022-07-29T21:12:16.374Z,17.78
2022-07-29T21:17:22.384Z,17.69
2022-07-29T21:22:26.068Z,17.63
2022-07-29T21:27:48.836Z,17.54
2022-07-29T21:32:52.279Z,17.44
2022-07-29T21:37:55.972Z,17.33
2022-07-29T21:42:59.386Z,17.24
2022-07-29T21:48:03.115Z,17.12
2022-07-29T21:53:06.624Z,17.02
2022-07-29T21:58:12.200Z,16.94
2022-07-29T22:03:16.220Z,16.84
2022-07-29T22:08:19.628Z,16.75
2022-07-29T22:13:23.046Z,16.66
2022-07-29T22:18:26.706Z,16.56
2022-07-29T22:23:30.073Z,16.48
2022-07-29T22:28:33.898Z,16.40
2022-07-29T22:33:37.517Z,16.34
2022-07-29T22:38:41.106Z,16.29
2022-07-29T22:43:44.451Z,16.30
2022-07-29T22:48:48.618Z,16.36
2022-07-29T22:53:52.400Z,16.39
2022-07-29T22:58:56.222Z,16.31
2022-07-29T23:04:00.134Z,16.20
2022-07-29T23:09:04.591Z,16.09
2022-07-29T23:14:09.616Z,16.00
2022-07-29T23:19:13.463Z,15.88
2022-07-29T23:24:16.962Z,15.80
2022-07-29T23:29:20.773Z,15.71
2022-07-29T23:34:24.319Z,15.63
2022-07-29T23:39:28.012Z,15.53
2022-07-29T23:44:31.353Z,15.48
2022-07-29T23:49:35.378Z,15.50
2022-07-29T23:54:38.792Z,15.57
2022-07-29T23:59:42.206Z,15.63
